createdAt,value
2019-03-05T00:00:41.275Z,9.20
2019-03-05T00:03:12.597Z,9.20
2019-03-05T00:05:43.323Z,9.00
2019-03-05T00:08:14.642Z,9.10
2019-03-05T00:10:45.725Z,9.10
2019-03-05T00:13:16.564Z,9.00
2019-03-05T00:15:49.082Z,9.10
2019-03-05T00:18:20.045Z,9.30
2019-03-05T00:20:50.765Z,9.30
2019-03-05T00:23:46.329Z,9.30
2019-03-05T00:26:18.129Z,9.30
2019-03-05T00:29:23.411Z,9.20
2019-03-05T00:31:55.571Z,9.20
2019-03-05T00:35:00.975Z,9.00
2019-03-05T00:37:59.775Z,9.00
2019-03-05T00:41:11.055Z,9.00
2019-03-05T00:44:04.699Z,8.90
2019-03-05T00:47:18.259Z,8.90
2019-03-05T00:50:27.025Z,9.00
2019-03-05T00:53:19.703Z,8.80
2019-03-05T00:56:01.703Z,8.70
2019-03-05T00:58:48.986Z,8.80
2019-03-05T01:01:46.520Z,8.90
2019-03-05T01:04:25.829Z,9.00
2019-03-05T01:06:56.911Z,8.90
2019-03-05T01:09:28.109Z,8.80
2019-03-05T01:11:59.194Z,8.90
2019-03-05T01:14:30.154Z,8.90
2019-03-05T01:17:01.955Z,8.80
2019-03-05T01:19:33.035Z,8.70
2019-03-05T01:22:04.957Z,8.70
2019-03-05T01:24:36.038Z,8.90
2019-03-05T01:27:06.882Z,8.90
2019-03-05T01:29:38.799Z,9.00
2019-03-05T01:32:26.082Z,9.00
2019-03-05T01:35:14.326Z,9.00
2019-03-05T01:37:45.643Z,9.00
2019-03-05T01:40:38.205Z,9.00
2019-03-05T01:43:09.293Z,9.10
2019-03-05T01:45:40.617Z,9.00
2019-03-05T01:48:48.050Z,8.90
2019-03-05T01:51:19.013Z,9.00
2019-03-05T01:53:50.335Z,8.90
2019-03-05T01:56:21.773Z,8.70
2019-03-05T01:58:52.257Z,8.70
2019-03-05T02:01:23.458Z,8.80
2019-03-05T02:03:54.297Z,8.80
2019-03-05T02:06:25.742Z,8.90
2019-03-05T02:08:56.821Z,9.00
2019-03-05T02:11:28.024Z,8.80
2019-03-05T02:13:59.224Z,8.90
2019-03-05T02:16:30.426Z,9.00
2019-03-05T02:19:36.842Z,9.10
2019-03-05T02:22:10.866Z,9.10
2019-03-05T02:25:22.872Z,9.20
2019-03-05T02:28:11.773Z,9.30
2019-03-05T02:31:19.275Z,9.20
2019-03-05T02:34:13.632Z,9.20
2019-03-05T02:37:13.634Z,9.20
2019-03-05T02:40:18.438Z,9.20
2019-03-05T02:43:14.605Z,9.10
2019-03-05T02:46:19.881Z,9.20
2019-03-05T02:49:31.903Z,9.20
2019-03-05T02:52:33.331Z,9.20
2019-03-05T02:55:38.365Z,9.20
2019-03-05T02:58:07.885Z,9.10
2019-03-05T03:00:47.609Z,9.10
2019-03-05T03:03:29.729Z,9.10
2019-03-05T03:06:09.091Z,9.20
2019-03-05T03:08:40.413Z,9.20
2019-03-05T03:11:12.457Z,9.00
2019-03-05T03:13:43.895Z,9.00
2019-03-05T03:16:14.854Z,9.00
2019-03-05T03:18:46.060Z,8.90
2019-03-05T03:21:17.378Z,8.90
2019-03-05T03:23:48.098Z,9.00
2019-03-05T03:26:19.421Z,8.80
2019-03-05T03:28:51.104Z,9.00
2019-03-05T03:31:22.186Z,9.00
2019-03-05T03:33:53.143Z,9.10
2019-03-05T03:36:23.985Z,9.10
2019-03-05T03:38:54.706Z,9.20
2019-03-05T03:41:26.027Z,9.20
2019-03-05T03:43:58.192Z,9.20
2019-03-05T03:46:29.392Z,9.30
2019-03-05T03:49:00.352Z,9.20
2019-03-05T03:51:31.913Z,9.30
2019-03-05T03:54:03.243Z,9.30
2019-03-05T03:56:34.212Z,9.40
2019-03-05T03:59:05.645Z,9.40
2019-03-05T04:01:36.598Z,9.40
2019-03-05T04:04:07.324Z,9.50
2019-03-05T04:06:38.881Z,9.40
2019-03-05T04:09:12.739Z,9.40
2019-03-05T04:11:43.683Z,9.50
2019-03-05T04:14:14.644Z,9.50
2019-03-05T04:16:45.372Z,9.40
2019-03-05T04:19:20.065Z,9.50
2019-03-05T04:21:51.129Z,9.40
2019-03-05T04:24:22.809Z,9.40
2019-03-05T04:26:54.130Z,9.20
2019-03-05T04:29:26.534Z,9.30
2019-03-05T04:31:57.616Z,9.30
2019-03-05T04:34:28.694Z,9.30
2019-03-05T04:36:59.537Z,9.30
2019-03-05T04:39:30.497Z,9.40
2019-03-05T04:42:01.096Z,9.30
2019-03-05T04:44:39.499Z,9.30
2019-03-05T04:47:10.944Z,9.30
2019-03-05T04:52:43.945Z,9.40
2019-03-05T04:55:15.023Z,9.20
2019-03-05T04:57:45.985Z,9.20
2019-03-05T05:00:17.427Z,9.20
2019-03-05T05:02:48.509Z,9.10
2019-03-05T05:05:19.946Z,9.00
2019-03-05T05:07:50.911Z,9.00
2019-03-05T05:10:21.631Z,9.10
2019-03-05T05:12:52.833Z,9.10
2019-03-05T05:15:31.235Z,9.10
2019-03-05T05:18:02.435Z,9.10
2019-03-05T05:20:34.117Z,9.10
2019-03-05T05:23:05.079Z,8.90
2019-03-05T05:25:36.279Z,9.00
2019-03-05T05:28:07.486Z,8.80
2019-03-05T05:30:39.763Z,8.70
2019-03-05T05:33:10.733Z,8.70
2019-03-05T05:35:42.647Z,8.70
2019-03-05T05:38:13.492Z,8.70
2019-03-05T05:40:45.527Z,8.80
2019-03-05T05:43:18.529Z,8.90
2019-03-05T05:45:50.932Z,8.80
2019-03-05T05:48:22.614Z,8.90
2019-03-05T05:50:54.411Z,8.80
2019-03-05T05:53:25.373Z,8.90
2019-03-05T05:55:56.695Z,8.90
2019-03-05T05:58:27.415Z,8.80
2019-03-05T06:01:00.778Z,8.90
2019-03-05T06:03:31.857Z,8.90
2019-03-05T06:06:06.539Z,8.90
2019-03-05T06:08:38.101Z,8.90
2019-03-05T06:11:09.423Z,9.00
2019-03-05T06:13:41.465Z,8.90
2019-03-05T06:16:12.788Z,8.80
2019-03-05T06:18:43.866Z,8.80
2019-03-05T06:21:14.949Z,8.80
2019-03-05T06:23:46.156Z,8.80
2019-03-05T06:26:17.110Z,8.80
2019-03-05T06:28:48.431Z,8.80
2019-03-05T06:31:21.313Z,8.80
2019-03-05T06:33:52.874Z,8.90
2019-03-05T06:36:24.918Z,8.70
2019-03-05T06:38:56.476Z,8.70
2019-03-05T06:41:27.799Z,8.60
2019-03-05T06:43:58.762Z,8.50
2019-03-05T06:46:30.441Z,8.50
2019-03-05T06:49:02.362Z,8.60
2019-03-05T06:51:33.683Z,8.60
2019-03-05T06:54:05.006Z,8.60
2019-03-05T06:56:36.330Z,8.70
2019-03-05T06:59:08.728Z,8.60
2019-03-05T07:01:39.690Z,8.60
2019-03-05T07:04:10.410Z,8.60
2019-03-05T07:06:55.290Z,8.60
2019-03-05T07:09:50.254Z,8.60
2019-03-05T07:12:49.896Z,8.60
2019-03-05T07:16:03.096Z,8.60
2019-03-05T07:19:07.064Z,8.60
2019-03-05T07:22:03.460Z,8.60
2019-03-05T07:24:50.623Z,8.40
2019-03-05T07:27:30.940Z,8.60
2019-03-05T07:30:07.663Z,8.60
2019-03-05T07:32:38.866Z,8.50
2019-03-05T07:35:19.902Z,8.40
2019-03-05T07:37:52.909Z,8.30
2019-03-05T07:40:24.468Z,8.30
2019-03-05T07:42:55.428Z,8.30
2019-03-05T07:45:26.877Z,8.30
2019-03-05T07:47:57.715Z,8.40
2019-03-05T07:50:28.913Z,8.30
2019-03-05T07:53:00.238Z,8.40
2019-03-05T07:55:31.557Z,8.50
2019-03-05T07:58:02.398Z,8.40
2019-03-05T08:00:33.958Z,8.50
2019-03-05T08:03:04.801Z,8.60
2019-03-05T08:05:36.241Z,8.60
2019-03-05T08:08:42.724Z,8.60
2019-03-05T08:11:20.284Z,8.70
2019-03-05T08:14:22.453Z,8.70
2019-03-05T08:16:53.885Z,8.60
2019-03-05T08:19:24.848Z,8.70
2019-03-05T08:21:57.136Z,8.70
2019-03-05T08:24:28.576Z,8.70
2019-03-05T08:26:59.533Z,8.70
2019-03-05T08:29:30.373Z,8.70
2019-03-05T08:32:01.697Z,8.60
2019-03-05T08:34:32.414Z,8.60
2019-03-05T08:37:03.869Z,8.70
2019-03-05T08:39:35.059Z,8.70
2019-03-05T08:42:06.142Z,8.80
2019-03-05T08:44:46.877Z,8.90
2019-03-05T08:47:10.825Z,8.90
2019-03-05T08:49:41.544Z,8.90
2019-03-05T08:52:12.745Z,8.90
2019-03-05T08:54:45.492Z,8.90
2019-03-05T08:57:16.348Z,9.00
2019-03-05T08:59:47.428Z,9.00
2019-03-05T09:02:19.469Z,9.00
2019-03-05T09:04:51.751Z,9.00
2019-03-05T09:07:22.720Z,8.90
2019-03-05T09:09:54.033Z,8.80
2019-03-05T09:12:24.993Z,8.90
2019-03-05T09:14:55.478Z,8.90
2019-03-05T09:17:26.675Z,9.00
2019-03-05T09:19:58.001Z,9.00
2019-03-05T09:22:29.325Z,9.10
2019-03-05T09:25:00.519Z,9.10
2019-03-05T09:27:31.481Z,9.10
2019-03-05T09:30:02.805Z,9.10
2019-03-05T09:32:34.967Z,9.00
2019-03-05T09:37:46.490Z,8.90
2019-03-05T09:40:19.848Z,8.90
2019-03-05T09:42:50.809Z,8.80
2019-03-05T09:45:22.133Z,8.80
2019-03-05T09:47:53.577Z,8.80
2019-03-05T09:50:24.773Z,8.80
2019-03-05T09:52:55.976Z,8.90
2019-03-05T09:55:26.818Z,9.00
2019-03-05T09:58:07.431Z,8.90
2019-03-05T10:00:31.139Z,8.90
2019-03-05T10:03:01.863Z,8.90
2019-03-05T10:05:32.343Z,9.10
2019-03-05T10:08:03.070Z,9.10
2019-03-05T10:10:34.144Z,9.20
2019-03-05T10:13:05.105Z,9.20
2019-03-05T10:15:36.665Z,9.20
2019-03-05T10:18:12.699Z,9.30
2019-03-05T10:20:41.230Z,9.20
2019-03-05T10:23:12.190Z,9.10
2019-03-05T10:25:43.278Z,9.10
2019-03-05T10:28:14.594Z,9.20
2019-03-05T10:30:45.794Z,9.20
2019-03-05T10:33:18.676Z,9.30
2019-03-05T10:35:50.119Z,9.10
2019-03-05T10:38:22.879Z,9.10
2019-03-05T10:40:54.199Z,9.10
2019-03-05T10:43:25.399Z,9.20
2019-03-05T10:45:56.847Z,9.20
2019-03-05T10:48:30.255Z,9.30
2019-03-05T10:51:00.811Z,9.30
2019-03-05T10:53:32.845Z,9.40
2019-03-05T10:56:04.539Z,9.40
2019-03-05T10:58:35.248Z,9.50
2019-03-05T11:01:08.129Z,9.50
2019-03-05T11:03:39.694Z,9.60
2019-03-05T11:06:10.654Z,9.60
2019-03-05T11:08:41.974Z,9.60
2019-03-05T11:11:14.082Z,9.70
2019-03-05T11:13:48.156Z,9.70
2019-03-05T11:16:30.146Z,9.70
2019-03-05T11:18:52.424Z,9.70
2019-03-05T11:21:23.384Z,9.70
2019-03-05T11:23:56.023Z,9.80
2019-03-05T11:26:27.469Z,9.70
2019-03-05T11:28:59.622Z,9.70
2019-03-05T11:31:30.584Z,9.60
2019-03-05T11:34:02.864Z,9.70
2019-03-05T11:36:36.947Z,9.70
2019-03-05T11:39:10.548Z,9.70
2019-03-05T11:41:41.991Z,9.70
2019-03-05T11:44:13.672Z,9.70
2019-03-05T11:46:44.754Z,9.70
2019-03-05T11:49:16.439Z,9.70
2019-03-05T11:51:47.394Z,9.60
2019-03-05T11:54:18.838Z,9.70
2019-03-05T11:56:49.680Z,9.70
2019-03-05T11:59:20.765Z,9.80
2019-03-05T12:01:53.042Z,9.80
2019-03-05T12:04:24.121Z,9.80
2019-03-05T12:06:55.690Z,9.90
2019-03-05T12:09:29.164Z,9.90
2019-03-05T12:12:00.128Z,10.00
2019-03-05T12:14:31.329Z,10.00
2019-03-05T12:17:02.170Z,10.00
2019-03-05T12:19:33.489Z,10.10
2019-03-05T12:22:04.691Z,10.00
2019-03-05T12:24:35.174Z,9.90
2019-03-05T12:27:06.735Z,9.90
2019-03-05T12:29:37.694Z,9.90
2019-03-05T12:32:09.495Z,9.90
2019-03-05T12:34:40.336Z,10.00
2019-03-05T12:37:11.418Z,10.10
2019-03-05T12:39:42.619Z,10.10
2019-03-05T12:42:14.181Z,10.10
2019-03-05T12:44:45.621Z,10.10
2019-03-05T12:47:17.905Z,10.10
2019-03-05T12:49:49.344Z,10.10
2019-03-05T12:52:20.546Z,10.20
2019-03-05T12:54:52.711Z,10.20
2019-03-05T12:57:23.548Z,10.20
2019-03-05T12:59:55.830Z,10.20
2019-03-05T13:02:26.914Z,10.20
2019-03-05T13:04:57.752Z,10.30
2019-03-05T13:07:29.072Z,10.30
2019-03-05T13:10:02.445Z,10.30
2019-03-05T13:12:35.889Z,10.30
2019-03-05T13:15:08.080Z,10.30
2019-03-05T13:17:38.800Z,10.40
2019-03-05T13:20:22.444Z,10.40
2019-03-05T13:22:52.003Z,10.40
2019-03-05T13:25:24.323Z,10.30
2019-03-05T13:28:01.304Z,10.20
2019-03-05T13:30:30.526Z,10.20
2019-03-05T13:33:01.491Z,10.10
2019-03-05T13:35:33.887Z,10.10
2019-03-05T13:38:07.351Z,10.20
2019-03-05T13:40:40.455Z,10.40
2019-03-05T13:43:11.218Z,10.40
2019-03-05T13:45:49.132Z,10.50
2019-03-05T13:48:39.654Z,10.40
2019-03-05T13:51:35.097Z,10.40
2019-03-05T13:54:43.900Z,10.40
2019-03-05T13:57:55.001Z,10.50
2019-03-05T14:00:26.101Z,10.50
2019-03-05T14:03:09.060Z,10.50
2019-03-05T14:06:09.665Z,10.50
2019-03-05T14:08:57.791Z,10.50
2019-03-05T14:11:31.028Z,10.50
2019-03-05T14:14:02.249Z,10.40
2019-03-05T14:16:34.281Z,10.40
2019-03-05T14:19:06.443Z,10.40
2019-03-05T14:21:37.653Z,10.50
2019-03-05T14:24:08.717Z,10.50
2019-03-05T14:26:40.304Z,10.50
2019-03-05T14:29:11.503Z,10.50
2019-03-05T14:31:42.334Z,10.50
2019-03-05T14:34:13.786Z,10.50
2019-03-05T14:36:45.217Z,10.40
2019-03-05T14:39:29.870Z,10.50
2019-03-05T14:42:02.018Z,10.50
2019-03-05T14:44:39.773Z,10.60
2019-03-05T14:47:06.455Z,10.60
2019-03-05T14:49:37.918Z,10.60
2019-03-05T14:52:09.356Z,10.60
2019-03-05T14:54:40.808Z,10.60
2019-03-05T14:57:11.850Z,10.60
2019-03-05T14:59:43.629Z,10.60
2019-03-05T15:02:15.230Z,10.60
2019-03-05T15:04:46.773Z,10.60
2019-03-05T15:07:19.173Z,10.60
2019-03-05T15:09:50.500Z,10.60
2019-03-05T15:12:21.579Z,10.60
2019-03-05T15:14:52.537Z,10.70
2019-03-05T15:17:24.100Z,10.70
2019-03-05T15:19:55.448Z,10.80
2019-03-05T15:22:26.502Z,10.90
2019-03-05T15:24:57.730Z,10.90
2019-03-05T15:27:28.927Z,10.90
2019-03-05T15:30:00.321Z,10.80
2019-03-05T15:32:31.815Z,10.60
2019-03-05T15:35:03.254Z,10.50
2019-03-05T15:37:34.342Z,10.50
2019-03-05T15:40:05.922Z,10.50
2019-03-05T15:42:37.746Z,10.50
2019-03-05T15:45:11.650Z,10.50
2019-03-05T15:47:42.884Z,10.50
2019-03-05T15:50:18.991Z,10.60
2019-03-05T15:52:50.042Z,10.70
2019-03-05T15:55:21.119Z,10.50
2019-03-05T15:57:52.200Z,10.50
2019-03-05T16:00:27.242Z,10.50
2019-03-05T16:02:58.684Z,10.40
2019-03-05T16:05:29.884Z,10.50
2019-03-05T16:08:01.577Z,10.50
2019-03-05T16:10:33.729Z,10.40
2019-03-05T16:13:04.810Z,10.40
2019-03-05T16:15:35.894Z,10.40
2019-03-05T16:18:06.985Z,10.50
2019-03-05T16:20:38.347Z,10.50
2019-03-05T16:23:09.136Z,10.50
2019-03-05T16:25:39.978Z,10.50
2019-03-05T16:28:12.021Z,10.60
2019-03-05T16:31:12.641Z,10.60
2019-03-05T16:34:09.384Z,10.50
2019-03-05T16:37:02.105Z,10.50
2019-03-05T16:39:53.661Z,10.50
2019-03-05T16:42:36.024Z,10.50
2019-03-05T16:45:14.666Z,10.40
2019-03-05T16:48:05.306Z,10.30
2019-03-05T16:51:01.470Z,10.30
2019-03-05T16:53:52.854Z,10.20
2019-03-05T16:56:41.072Z,10.20
2019-03-05T16:59:25.230Z,10.30
2019-03-05T17:02:13.599Z,10.40
2019-03-05T17:05:22.384Z,10.50
2019-03-05T17:08:21.878Z,10.40
2019-03-05T17:11:00.518Z,10.20
2019-03-05T17:13:32.557Z,10.10
2019-03-05T17:16:03.882Z,10.20
2019-03-05T17:18:35.321Z,10.20
2019-03-05T17:21:07.001Z,10.40
2019-03-05T17:23:37.848Z,10.50
2019-03-05T17:26:10.365Z,10.50
2019-03-05T17:28:41.928Z,10.40
2019-03-05T17:31:13.733Z,10.50
2019-03-05T17:33:44.809Z,10.50
2019-03-05T17:36:15.649Z,10.50
2019-03-05T17:38:46.855Z,10.50
2019-03-05T17:41:20.218Z,10.60
2019-03-05T17:43:51.776Z,10.60
2019-03-05T17:46:22.734Z,10.70
2019-03-05T17:48:53.815Z,10.60
2019-03-05T17:51:26.384Z,10.60
2019-03-05T17:53:57.419Z,10.70
2019-03-05T17:56:31.632Z,10.60
2019-03-05T17:59:08.110Z,10.60
2019-03-05T18:01:39.791Z,10.60
2019-03-05T18:04:11.106Z,10.60
2019-03-05T18:06:44.833Z,10.50
2019-03-05T18:09:16.393Z,10.50
2019-03-05T18:11:49.396Z,10.50
2019-03-05T18:14:23.477Z,10.60
2019-03-05T18:16:54.675Z,10.50
2019-03-05T18:19:26.718Z,10.40
2019-03-05T18:21:58.153Z,10.30
2019-03-05T18:24:30.918Z,10.40
2019-03-05T18:27:04.398Z,10.40
2019-03-05T18:29:35.837Z,10.40
2019-03-05T18:32:06.677Z,10.40
2019-03-05T18:34:37.880Z,10.50
2019-03-05T18:37:08.724Z,10.30
2019-03-05T18:39:39.812Z,10.20
2019-03-05T18:42:10.890Z,10.20
2019-03-05T18:44:41.847Z,10.30
2019-03-05T18:47:12.806Z,10.40
2019-03-05T18:49:44.247Z,10.50
2019-03-05T18:52:18.932Z,10.50
2019-03-05T18:54:50.015Z,10.60
2019-03-05T18:57:22.537Z,10.60
2019-03-05T18:59:55.437Z,10.60
2019-03-05T19:02:28.177Z,10.60
2019-03-05T19:04:59.021Z,10.70
2019-03-05T19:07:31.110Z,10.70
2019-03-05T19:10:04.545Z,10.70
2019-03-05T19:12:36.108Z,10.70
2019-03-05T19:15:09.103Z,10.70
2019-03-05T19:17:40.551Z,10.60
2019-03-05T19:20:17.270Z,10.70
2019-03-05T19:22:51.356Z,10.70
2019-03-05T19:25:26.157Z,10.60
2019-03-05T19:27:57.352Z,10.70
2019-03-05T19:30:30.835Z,10.60
2019-03-05T19:33:03.237Z,10.60
2019-03-05T19:35:34.436Z,10.50
2019-03-05T19:38:06.119Z,10.40
2019-03-05T19:40:40.249Z,10.50
2019-03-05T19:43:13.561Z,10.40
2019-03-05T19:45:44.758Z,10.40
2019-03-05T19:48:16.123Z,10.10
2019-03-05T19:50:47.400Z,10.30
2019-03-05T19:53:20.042Z,10.20
2019-03-05T19:55:51.601Z,10.20
2019-03-05T19:58:23.162Z,10.30
2019-03-05T20:00:59.404Z,10.30
2019-03-05T20:03:30.983Z,10.30
2019-03-05T20:06:02.886Z,10.30
2019-03-05T20:08:39.740Z,10.40
2019-03-05T20:11:08.183Z,10.40
2019-03-05T20:13:40.451Z,10.40
2019-03-05T20:16:13.332Z,10.40
2019-03-05T20:18:44.173Z,10.40
2019-03-05T20:21:15.495Z,10.40
2019-03-05T20:23:46.220Z,10.40
2019-03-05T20:26:17.299Z,10.40
2019-03-05T20:28:48.623Z,10.40
2019-03-05T20:31:19.581Z,10.40
2019-03-05T20:33:50.906Z,10.40
2019-03-05T20:36:22.378Z,10.40
2019-03-05T20:38:53.904Z,10.40
2019-03-05T20:41:25.345Z,10.40
2019-03-05T20:43:56.788Z,10.40
2019-03-05T20:46:29.906Z,10.40
2019-03-05T20:49:01.107Z,10.40
2019-03-05T20:51:32.792Z,10.40
2019-03-05T20:54:04.111Z,10.40
2019-03-05T20:56:35.556Z,10.40
2019-03-05T20:59:07.113Z,10.40
2019-03-05T21:01:37.835Z,10.30
2019-03-05T21:04:09.279Z,10.40
2019-03-05T21:06:40.477Z,10.20
2019-03-05T21:09:24.763Z,10.40
2019-03-05T21:11:56.443Z,10.40
2019-03-05T21:14:28.001Z,10.30
2019-03-05T21:17:01.244Z,10.30
2019-03-05T21:19:32.451Z,10.30
2019-03-05T21:22:03.646Z,10.40
2019-03-05T21:24:35.445Z,10.40
2019-03-05T21:27:06.648Z,10.40
2019-03-05T21:29:37.371Z,10.40
2019-03-05T21:32:08.689Z,10.40
2019-03-05T21:34:40.371Z,10.40
2019-03-05T21:37:11.333Z,10.40
2019-03-05T21:39:42.178Z,10.30
2019-03-05T21:42:13.135Z,10.40
2019-03-05T21:44:44.699Z,10.40
2019-03-05T21:47:15.539Z,10.30
2019-03-05T21:49:47.219Z,10.30
2019-03-05T21:52:18.784Z,10.30
2019-03-05T21:54:50.222Z,10.30
2019-03-05T21:57:21.302Z,10.30
2019-03-05T21:59:52.025Z,10.30
2019-03-05T22:02:23.349Z,10.30
2019-03-05T22:04:54.547Z,10.30
2019-03-05T22:07:26.229Z,10.30
2019-03-05T22:09:58.269Z,10.30
2019-03-05T22:12:29.231Z,10.30
2019-03-05T22:15:00.345Z,10.30
2019-03-05T22:17:31.273Z,10.30
2019-03-05T22:20:02.123Z,10.30
2019-03-05T22:22:34.638Z,10.20
2019-03-05T22:25:06.799Z,10.20
2019-03-05T22:27:37.879Z,10.20
2019-03-05T22:30:14.481Z,10.20
2019-03-05T22:32:45.563Z,10.20
2019-03-05T22:35:20.719Z,10.20
2019-03-05T22:37:52.051Z,10.20
2019-03-05T22:40:24.336Z,10.20
2019-03-05T22:42:55.528Z,10.20
2019-03-05T22:45:29.007Z,10.20
2019-03-05T22:47:59.968Z,10.20
2019-03-05T22:50:31.413Z,10.20
2019-03-05T22:53:01.893Z,10.20
2019-03-05T22:55:32.975Z,10.20
2019-03-05T22:58:04.176Z,10.20
2019-03-05T23:01:11.976Z,10.20
2019-03-05T23:03:56.655Z,10.20
2019-03-05T23:06:28.539Z,10.10
2019-03-05T23:09:00.461Z,10.10
2019-03-05T23:11:33.821Z,10.10
2019-03-05T23:14:06.461Z,10.10
2019-03-05T23:16:37.545Z,10.10
2019-03-05T23:19:08.996Z,10.10
2019-03-05T23:21:40.185Z,10.10
2019-03-05T23:24:12.107Z,10.10
2019-03-05T23:26:44.151Z,10.10
2019-03-05T23:29:16.189Z,10.10
2019-03-05T23:31:47.392Z,10.10
2019-03-05T23:34:18.676Z,10.10
2019-03-05T23:36:49.674Z,10.10
2019-03-05T23:39:21.119Z,10.10
2019-03-05T23:41:52.677Z,10.10
2019-03-05T23:44:23.520Z,10.10
2019-03-05T23:46:54.477Z,10.10
2019-03-05T23:49:25.800Z,10.10
2019-03-05T23:51:57.121Z,10.10
2019-03-05T23:54:29.522Z,10.00
2019-03-05T23:57:00.384Z,10.10
2019-03-05T23:59:31.686Z,10.00
